createdAt,value
2017-06-18T00:00:55.147Z,17.02
2017-06-18T00:03:21.975Z,16.98
2017-06-18T00:05:48.737Z,17.02
2017-06-18T00:08:15.597Z,16.96
2017-06-18T00:10:42.349Z,16.93
2017-06-18T00:13:09.068Z,16.86
2017-06-18T00:15:35.800Z,16.77
2017-06-18T00:18:02.573Z,16.83
2017-06-18T00:20:29.294Z,16.75
2017-06-18T00:22:56.020Z,16.74
2017-06-18T00:25:22.745Z,16.82
2017-06-18T00:27:49.469Z,16.72
2017-06-18T00:30:16.234Z,16.68
2017-06-18T00:32:42.985Z,16.67
2017-06-18T00:35:09.869Z,16.76
2017-06-18T00:37:36.598Z,16.74
2017-06-18T00:40:03.470Z,16.61
2017-06-18T00:42:30.216Z,16.55
2017-06-18T00:44:56.941Z,16.52
2017-06-18T00:47:23.731Z,16.62
2017-06-18T00:49:50.432Z,16.62
2017-06-18T00:52:17.161Z,16.63
2017-06-18T00:54:43.988Z,16.56
2017-06-18T00:57:10.704Z,16.56
2017-06-18T00:59:37.454Z,16.52
2017-06-18T01:02:04.211Z,16.51
2017-06-18T01:04:31.049Z,16.54
2017-06-18T01:06:57.800Z,16.55
2017-06-18T01:09:24.552Z,16.56
2017-06-18T01:11:51.363Z,16.48
2017-06-18T01:14:18.089Z,16.41
2017-06-18T01:16:44.824Z,16.34
2017-06-18T01:19:11.553Z,16.40
2017-06-18T01:21:38.278Z,16.44
2017-06-18T01:24:05.020Z,16.30
2017-06-18T01:26:31.781Z,16.38
2017-06-18T01:28:58.486Z,16.34
2017-06-18T01:31:25.222Z,16.28
2017-06-18T01:33:52.055Z,16.28
2017-06-18T01:36:18.806Z,16.22
2017-06-18T01:38:45.577Z,16.23
2017-06-18T01:41:12.466Z,16.28
2017-06-18T01:43:39.323Z,16.26
2017-06-18T01:46:06.206Z,16.25
2017-06-18T01:48:32.940Z,16.20
2017-06-18T01:50:59.691Z,16.24
2017-06-18T01:53:26.430Z,16.23
2017-06-18T01:55:53.176Z,16.21
2017-06-18T01:58:19.917Z,16.20
2017-06-18T02:00:46.657Z,16.21
2017-06-18T02:03:13.458Z,16.19
2017-06-18T02:05:40.278Z,16.20
2017-06-18T02:08:07.045Z,16.27
2017-06-18T02:10:33.817Z,16.26
2017-06-18T02:13:00.566Z,16.16
2017-06-18T02:15:27.317Z,16.20
2017-06-18T02:17:54.110Z,16.12
2017-06-18T02:20:20.832Z,16.20
2017-06-18T02:22:47.532Z,16.14
2017-06-18T02:25:14.271Z,16.07
2017-06-18T02:27:40.985Z,16.07
2017-06-18T02:30:07.733Z,16.00
2017-06-18T02:32:34.457Z,15.91
2017-06-18T02:35:01.225Z,15.80
2017-06-18T02:37:27.950Z,15.66
2017-06-18T02:39:54.665Z,15.72
2017-06-18T02:42:21.385Z,15.54
2017-06-18T02:44:48.114Z,15.65
2017-06-18T02:47:14.889Z,15.54
2017-06-18T02:49:41.595Z,15.51
2017-06-18T02:52:08.366Z,15.50
2017-06-18T02:54:35.105Z,15.40
2017-06-18T02:57:01.821Z,15.32
2017-06-18T02:59:28.565Z,15.29
2017-06-18T03:01:55.293Z,15.39
2017-06-18T03:04:22.045Z,15.31
2017-06-18T03:06:48.868Z,15.32
2017-06-18T03:09:15.674Z,15.51
2017-06-18T03:11:42.406Z,15.35
2017-06-18T03:14:09.197Z,15.41
2017-06-18T03:16:35.973Z,15.44
2017-06-18T03:19:02.678Z,15.48
2017-06-18T03:21:50.355Z,15.61
2017-06-18T03:24:34.632Z,15.83
2017-06-18T03:27:04.361Z,15.71
2017-06-18T03:29:34.140Z,15.59
2017-06-18T03:32:03.995Z,15.83
2017-06-18T03:34:33.695Z,15.72
2017-06-18T03:37:04.518Z,15.83
2017-06-18T03:39:35.221Z,15.70
2017-06-18T03:42:04.941Z,15.67
2017-06-18T03:44:34.652Z,15.61
2017-06-18T03:47:04.383Z,15.67
2017-06-18T03:49:34.118Z,15.75
2017-06-18T03:52:03.812Z,15.89
2017-06-18T03:54:33.553Z,15.77
2017-06-18T03:57:03.240Z,15.67
2017-06-18T03:59:33.021Z,15.86
2017-06-18T04:02:03.477Z,16.13
2017-06-18T04:04:33.215Z,16.06
2017-06-18T04:07:02.924Z,15.93
2017-06-18T04:09:32.730Z,15.89
2017-06-18T04:12:02.465Z,15.87
2017-06-18T04:14:32.195Z,16.04
2017-06-18T04:17:02.806Z,16.29
2017-06-18T04:19:32.515Z,16.27
2017-06-18T04:22:02.262Z,16.16
2017-06-18T04:24:31.995Z,16.29
2017-06-18T04:27:01.738Z,16.31
2017-06-18T04:29:31.501Z,16.59
2017-06-18T04:32:01.193Z,16.68
2017-06-18T04:34:31.810Z,16.64
2017-06-18T04:37:01.520Z,16.70
2017-06-18T04:39:32.154Z,16.82
2017-06-18T04:42:01.885Z,16.82
2017-06-18T04:44:31.583Z,17.03
2017-06-18T04:47:01.336Z,17.05
2017-06-18T04:49:31.111Z,17.16
2017-06-18T04:52:01.763Z,17.30
2017-06-18T04:54:31.500Z,17.18
2017-06-18T04:57:01.253Z,17.22
2017-06-18T04:59:31.857Z,17.50
2017-06-18T05:02:01.591Z,17.53
2017-06-18T05:04:31.329Z,17.60
2017-06-18T05:07:01.049Z,17.62
2017-06-18T05:09:30.784Z,17.65
2017-06-18T05:12:01.857Z,17.68
2017-06-18T05:14:32.187Z,17.56
2017-06-18T05:17:02.377Z,17.28
2017-06-18T05:19:32.216Z,17.22
2017-06-18T05:22:01.965Z,17.35
2017-06-18T05:24:31.666Z,17.49
2017-06-18T05:27:01.393Z,17.49
2017-06-18T05:29:31.123Z,17.62
2017-06-18T05:32:00.867Z,17.69
2017-06-18T05:34:30.557Z,17.77
2017-06-18T05:37:00.240Z,17.81
2017-06-18T05:39:30.871Z,17.27
2017-06-18T05:42:00.614Z,17.47
2017-06-18T05:44:31.193Z,17.68
2017-06-18T05:47:00.939Z,17.78
2017-06-18T05:49:30.665Z,17.79
2017-06-18T05:52:00.400Z,17.72
2017-06-18T05:54:30.167Z,17.33
2017-06-18T05:56:59.937Z,17.55
2017-06-18T05:59:29.713Z,17.82
2017-06-18T06:01:59.416Z,17.93
2017-06-18T06:04:29.170Z,17.76
2017-06-18T06:06:58.882Z,17.60
2017-06-18T06:09:28.610Z,17.81
2017-06-18T06:11:58.346Z,17.83
2017-06-18T06:14:32.125Z,17.92
2017-06-18T06:17:01.893Z,18.09
2017-06-18T06:19:32.526Z,18.18
2017-06-18T06:22:02.281Z,18.38
2017-06-18T06:24:32.041Z,18.09
2017-06-18T06:27:02.113Z,18.39
2017-06-18T06:29:31.843Z,18.43
2017-06-18T06:32:01.553Z,18.54
2017-06-18T06:34:31.297Z,18.67
2017-06-18T06:37:01.037Z,18.91
2017-06-18T06:39:30.789Z,19.00
2017-06-18T06:42:00.504Z,19.13
2017-06-18T06:44:30.223Z,19.27
2017-06-18T06:46:59.938Z,19.42
2017-06-18T06:49:29.625Z,19.72
2017-06-18T06:51:59.343Z,19.62
2017-06-18T06:54:29.044Z,19.54
2017-06-18T06:56:58.793Z,19.68
2017-06-18T06:59:28.893Z,19.44
2017-06-18T07:01:58.658Z,19.42
2017-06-18T07:04:28.381Z,18.96
2017-06-18T07:06:58.117Z,19.35
2017-06-18T07:09:27.930Z,19.62
2017-06-18T07:11:58.455Z,19.84
2017-06-18T07:14:28.216Z,19.96
2017-06-18T07:16:57.908Z,20.10
2017-06-18T07:19:27.668Z,20.28
2017-06-18T07:21:57.366Z,20.54
2017-06-18T07:24:27.103Z,20.77
2017-06-18T07:26:56.865Z,20.27
2017-06-18T07:29:26.571Z,20.58
2017-06-18T07:31:56.495Z,20.56
2017-06-18T07:34:26.281Z,20.53
2017-06-18T07:36:56.068Z,20.54
2017-06-18T07:39:25.840Z,20.67
2017-06-18T07:41:55.574Z,21.20
2017-06-18T07:44:25.384Z,21.57
2017-06-18T07:46:55.155Z,21.44
2017-06-18T07:49:24.909Z,21.30
2017-06-18T07:51:54.673Z,21.21
2017-06-18T07:54:24.411Z,21.09
2017-06-18T07:56:54.141Z,20.95
2017-06-18T07:59:23.838Z,20.99
2017-06-18T08:01:53.564Z,21.27
2017-06-18T08:04:23.299Z,21.63
2017-06-18T08:06:53.034Z,21.93
2017-06-18T08:09:22.727Z,22.30
2017-06-18T08:11:52.496Z,22.49
2017-06-18T08:14:22.253Z,22.39
2017-06-18T08:16:51.999Z,21.87
2017-06-18T08:19:21.738Z,21.76
2017-06-18T08:21:51.447Z,21.55
2017-06-18T08:24:21.221Z,21.37
2017-06-18T08:26:50.946Z,21.80
2017-06-18T08:29:20.729Z,22.18
2017-06-18T08:31:50.465Z,22.55
2017-06-18T08:34:20.188Z,22.84
2017-06-18T08:36:49.942Z,22.61
2017-06-18T08:39:19.473Z,22.86
2017-06-18T08:41:49.206Z,23.13
2017-06-18T08:44:18.918Z,22.96
2017-06-18T08:46:48.678Z,22.60
2017-06-18T08:49:18.408Z,22.43
2017-06-18T08:51:47.951Z,22.30
2017-06-18T08:54:17.697Z,22.49
2017-06-18T08:56:47.421Z,23.00
2017-06-18T08:59:17.233Z,23.37
2017-06-18T09:01:46.962Z,23.34
2017-06-18T09:04:16.766Z,23.21
2017-06-18T09:06:55.047Z,23.30
2017-06-18T09:09:24.984Z,23.39
2017-06-18T09:11:55.616Z,23.66
2017-06-18T09:14:25.363Z,23.76
2017-06-18T09:16:55.193Z,23.96
2017-06-18T09:19:24.914Z,24.02
2017-06-18T09:21:54.720Z,23.95
2017-06-18T09:24:24.452Z,23.73
2017-06-18T09:26:54.226Z,23.77
2017-06-18T09:29:23.998Z,24.02
2017-06-18T09:31:53.724Z,23.73
2017-06-18T09:34:23.526Z,23.44
2017-06-18T09:36:53.252Z,23.03
2017-06-18T09:39:22.805Z,22.98
2017-06-18T09:41:52.605Z,23.08
2017-06-18T09:44:22.347Z,23.21
2017-06-18T09:46:52.128Z,23.57
2017-06-18T09:49:21.876Z,24.00
2017-06-18T09:51:51.680Z,24.11
2017-06-18T09:54:21.416Z,24.22
2017-06-18T09:56:51.172Z,24.27
2017-06-18T09:59:20.917Z,24.20
2017-06-18T10:01:50.650Z,23.93
2017-06-18T10:04:20.393Z,23.72
2017-06-18T10:06:50.127Z,23.55
2017-06-18T10:09:19.902Z,23.39
2017-06-18T10:11:50.475Z,23.55
2017-06-18T10:14:20.267Z,23.93
2017-06-18T10:16:49.987Z,24.34
2017-06-18T10:19:19.729Z,24.59
2017-06-18T10:22:06.977Z,24.85
2017-06-18T10:35:09.239Z,24.34
2017-06-18T10:37:38.973Z,24.30
2017-06-18T10:40:08.706Z,24.58
2017-06-18T10:42:38.422Z,24.84
2017-06-18T10:45:08.167Z,25.10
2017-06-18T10:47:37.865Z,25.13
2017-06-18T10:50:07.594Z,24.86
2017-06-18T10:52:37.288Z,24.61
2017-06-18T10:55:07.005Z,24.55
2017-06-18T10:57:36.944Z,24.90
2017-06-18T11:00:06.658Z,25.16
2017-06-18T11:02:37.235Z,25.69
2017-06-18T11:05:06.933Z,26.14
2017-06-18T11:07:36.682Z,26.40
2017-06-18T11:10:06.385Z,26.37
2017-06-18T11:12:36.149Z,26.33
2017-06-18T11:15:06.299Z,25.87
2017-06-18T11:17:39.511Z,25.19
2017-06-18T11:20:10.280Z,25.08
2017-06-18T11:22:42.717Z,24.74
2017-06-18T11:25:15.035Z,24.67
2017-06-18T11:27:45.782Z,24.62
2017-06-18T11:30:16.526Z,24.85
2017-06-18T11:32:47.470Z,25.29
2017-06-18T11:35:18.416Z,25.45
2017-06-18T11:37:48.266Z,25.53
2017-06-18T11:40:20.278Z,25.87
2017-06-18T11:42:54.305Z,25.83
2017-06-18T11:45:25.711Z,25.85
2017-06-18T11:47:56.557Z,25.55
2017-06-18T11:50:27.701Z,25.50
2017-06-18T11:52:58.891Z,25.69
2017-06-18T11:55:28.977Z,25.75
2017-06-18T11:57:59.861Z,25.59
2017-06-18T12:00:30.309Z,25.50
2017-06-18T12:03:03.931Z,25.32
2017-06-18T12:05:35.561Z,25.35
2017-06-18T12:08:06.164Z,25.26
2017-06-18T12:10:37.267Z,25.40
2017-06-18T12:13:09.127Z,25.47
2017-06-18T12:15:39.440Z,25.68
2017-06-18T12:18:12.058Z,25.80
2017-06-18T12:20:42.900Z,25.88
2017-06-18T12:23:13.508Z,25.57
2017-06-18T12:25:43.230Z,26.01
2017-06-18T12:28:20.603Z,25.39
2017-06-18T12:31:02.658Z,25.82
2017-06-18T12:33:46.202Z,26.03
2017-06-18T12:36:27.649Z,25.88
2017-06-18T12:39:06.496Z,25.76
2017-06-18T12:41:39.833Z,25.85
2017-06-18T12:44:09.654Z,25.88
2017-06-18T12:46:39.393Z,25.98
2017-06-18T12:49:09.127Z,26.05
2017-06-18T12:51:38.841Z,26.10
2017-06-18T12:54:11.688Z,25.77
2017-06-18T12:56:44.039Z,25.54
2017-06-18T12:59:16.443Z,25.75
2017-06-18T13:01:48.285Z,25.71
2017-06-18T13:04:20.393Z,25.90
2017-06-18T13:06:51.401Z,26.18
2017-06-18T13:09:22.166Z,26.01
2017-06-18T13:11:52.338Z,26.09
2017-06-18T13:14:22.601Z,26.28
2017-06-18T13:16:52.709Z,26.46
2017-06-18T13:19:23.695Z,26.51
2017-06-18T13:21:53.996Z,26.42
2017-06-18T13:24:27.382Z,26.44
2017-06-18T13:26:58.397Z,26.69
2017-06-18T13:29:28.856Z,26.58
2017-06-18T13:32:00.587Z,26.46
2017-06-18T13:34:30.693Z,26.61
2017-06-18T13:37:04.377Z,26.57
2017-06-18T13:39:37.555Z,26.59
2017-06-18T13:42:09.604Z,26.82
2017-06-18T13:44:40.644Z,26.33
2017-06-18T13:47:12.737Z,26.47
2017-06-18T13:49:44.644Z,26.28
2017-06-18T13:52:15.692Z,26.02
2017-06-18T13:54:46.389Z,25.54
2017-06-18T13:57:16.888Z,25.52
2017-06-18T13:59:48.729Z,25.70
2017-06-18T14:02:19.078Z,25.87
2017-06-18T14:04:49.607Z,25.94
2017-06-18T14:07:20.353Z,25.63
2017-06-18T14:09:50.620Z,25.78
2017-06-18T14:12:21.133Z,25.83
2017-06-18T14:14:52.420Z,25.69
2017-06-18T14:17:23.741Z,25.62
2017-06-18T14:19:54.037Z,25.57
2017-06-18T14:22:25.462Z,25.61
2017-06-18T14:24:55.871Z,25.64
2017-06-18T14:27:27.485Z,25.45
2017-06-18T14:29:57.578Z,24.96
2017-06-18T14:32:27.569Z,25.13
2017-06-18T14:34:59.359Z,25.26
2017-06-18T14:37:31.608Z,25.45
2017-06-18T14:40:05.063Z,25.45
2017-06-18T14:42:37.445Z,25.34
2017-06-18T14:45:12.309Z,25.46
2017-06-18T14:47:44.142Z,25.19
2017-06-18T14:50:16.204Z,25.17
2017-06-18T14:52:46.825Z,24.91
2017-06-18T14:55:18.523Z,24.82
2017-06-18T14:57:50.153Z,24.74
2017-06-18T15:00:20.774Z,24.99
2017-06-18T15:02:51.651Z,25.26
2017-06-18T15:05:25.338Z,25.39
2017-06-18T15:07:59.720Z,25.39
2017-06-18T15:10:32.922Z,25.39
2017-06-18T15:13:03.270Z,25.03
2017-06-18T15:15:33.664Z,25.01
2017-06-18T15:18:03.482Z,25.03
2017-06-18T15:20:36.533Z,25.28
2017-06-18T15:23:11.667Z,25.36
2017-06-18T15:25:44.034Z,25.03
2017-06-18T15:28:19.605Z,25.16
2017-06-18T15:30:56.293Z,25.06
2017-06-18T15:33:34.305Z,25.06
2017-06-18T15:36:09.299Z,25.29
2017-06-18T15:38:43.927Z,25.09
2017-06-18T15:41:18.908Z,24.91
2017-06-18T15:43:52.713Z,24.86
2017-06-18T15:46:26.243Z,25.03
2017-06-18T15:49:00.322Z,25.07
2017-06-18T15:51:44.440Z,24.98
2017-06-18T15:54:17.217Z,24.73
2017-06-18T15:56:51.242Z,24.64
2017-06-18T15:59:24.629Z,24.74
2017-06-18T16:01:58.572Z,24.74
2017-06-18T16:04:33.186Z,24.86
2017-06-18T16:07:07.397Z,24.89
2017-06-18T16:09:43.633Z,24.99
2017-06-18T16:12:20.709Z,25.05
2017-06-18T16:14:58.277Z,25.13
2017-06-18T16:17:32.775Z,25.19
2017-06-18T16:20:07.607Z,25.17
2017-06-18T16:22:42.169Z,25.16
2017-06-18T16:25:24.407Z,25.17
2017-06-18T16:27:55.601Z,24.92
2017-06-18T16:30:27.061Z,24.97
2017-06-18T16:32:58.718Z,24.90
2017-06-18T16:35:31.147Z,24.74
2017-06-18T16:38:01.316Z,24.80
2017-06-18T16:40:31.041Z,24.67
2017-06-18T16:43:00.788Z,24.84
2017-06-18T16:45:30.933Z,25.04
2017-06-18T16:48:00.725Z,25.02
2017-06-18T16:50:34.929Z,24.97
2017-06-18T16:53:08.696Z,24.86
2017-06-18T16:55:39.650Z,24.94
2017-06-18T16:58:10.097Z,24.94
2017-06-18T17:00:40.809Z,24.99
2017-06-18T17:03:11.567Z,24.92
2017-06-18T17:05:47.635Z,24.93
2017-06-18T17:08:18.646Z,24.84
2017-06-18T17:10:50.780Z,24.76
2017-06-18T17:13:23.392Z,24.61
2017-06-18T17:15:54.596Z,24.55
2017-06-18T17:18:25.873Z,24.49
2017-06-18T17:21:14.477Z,24.47
2017-06-18T17:23:58.862Z,24.67
2017-06-18T17:26:29.583Z,24.62
2017-06-18T17:29:01.081Z,24.48
2017-06-18T17:31:32.386Z,24.41
2017-06-18T17:34:03.271Z,24.43
2017-06-18T17:36:36.555Z,24.58
2017-06-18T17:39:06.296Z,24.45
2017-06-18T17:41:37.016Z,24.50
2017-06-18T17:44:06.774Z,24.43
2017-06-18T17:46:36.478Z,24.44
2017-06-18T17:49:06.211Z,24.58
2017-06-18T17:51:35.961Z,24.67
2017-06-18T17:54:05.675Z,24.59
2017-06-18T17:56:35.379Z,24.52
2017-06-18T17:59:06.470Z,24.57
2017-06-18T18:01:38.349Z,24.48
2017-06-18T18:04:11.268Z,24.47
2017-06-18T18:06:43.358Z,24.43
2017-06-18T18:09:15.503Z,24.31
2017-06-18T18:11:46.332Z,24.21
2017-06-18T18:14:16.103Z,24.33
2017-06-18T18:16:46.143Z,24.23
2017-06-18T18:19:18.393Z,24.30
2017-06-18T18:21:49.435Z,24.29
2017-06-18T18:24:21.333Z,24.37
2017-06-18T18:26:52.008Z,24.32
2017-06-18T18:29:24.240Z,24.25
2017-06-18T18:31:57.231Z,24.18
2017-06-18T18:34:30.405Z,24.08
2017-06-18T18:37:01.251Z,23.99
2017-06-18T18:39:31.405Z,23.99
2017-06-18T18:42:02.598Z,23.85
2017-06-18T18:44:34.062Z,23.76
2017-06-18T18:47:04.718Z,23.70
2017-06-18T18:49:34.958Z,23.55
2017-06-18T18:52:05.393Z,23.49
2017-06-18T18:54:36.824Z,23.39
2017-06-18T18:57:07.557Z,23.27
2017-06-18T18:59:39.483Z,23.11
2017-06-18T19:02:12.707Z,23.01
2017-06-18T19:04:43.312Z,22.91
2017-06-18T19:07:14.634Z,22.86
2017-06-18T19:09:45.250Z,22.69
2017-06-18T19:12:17.287Z,22.50
2017-06-18T19:14:49.688Z,22.47
2017-06-18T19:17:22.839Z,22.51
2017-06-18T19:19:55.761Z,22.51
2017-06-18T19:22:27.693Z,22.34
2017-06-18T19:25:00.220Z,22.23
2017-06-18T19:27:32.027Z,22.14
2017-06-18T19:30:02.406Z,22.09
2017-06-18T19:32:34.384Z,21.92
2017-06-18T19:35:07.029Z,21.85
2017-06-18T19:37:40.756Z,21.76
2017-06-18T19:40:13.389Z,21.70
2017-06-18T19:42:44.744Z,21.71
2017-06-18T19:45:17.231Z,21.67
2017-06-18T19:47:50.316Z,21.53
2017-06-18T19:50:22.477Z,21.54
2017-06-18T19:52:54.118Z,21.46
2017-06-18T19:55:26.230Z,21.51
2017-06-18T19:57:58.728Z,21.39
2017-06-18T20:00:32.570Z,21.26
2017-06-18T20:03:04.136Z,21.08
2017-06-18T20:05:36.622Z,21.18
2017-06-18T20:08:10.303Z,21.06
2017-06-18T20:10:44.028Z,21.04
2017-06-18T20:13:17.425Z,21.06
2017-06-18T20:15:49.988Z,20.86
2017-06-18T20:18:21.003Z,20.89
2017-06-18T20:20:52.875Z,20.84
2017-06-18T20:23:24.811Z,20.79
2017-06-18T20:25:56.171Z,20.79
2017-06-18T20:28:25.898Z,20.81
2017-06-18T20:30:55.643Z,20.72
2017-06-18T20:33:25.635Z,20.73
2017-06-18T20:35:55.392Z,20.56
2017-06-18T20:38:25.118Z,20.50
2017-06-18T20:40:54.811Z,20.58
2017-06-18T20:43:24.589Z,20.48
2017-06-18T20:45:54.301Z,20.52
2017-06-18T20:48:23.992Z,20.39
2017-06-18T20:50:53.727Z,20.40
2017-06-18T20:53:23.447Z,20.33
2017-06-18T20:55:53.178Z,20.27
2017-06-18T20:58:22.882Z,20.23
2017-06-18T21:00:52.635Z,20.24
2017-06-18T21:03:22.359Z,20.12
2017-06-18T21:05:59.784Z,20.07
2017-06-18T21:08:29.606Z,20.14
2017-06-18T21:10:59.347Z,20.04
2017-06-18T21:13:29.038Z,19.96
2017-06-18T21:15:58.764Z,19.97
2017-06-18T21:18:28.486Z,19.92
2017-06-18T21:20:58.198Z,19.82
2017-06-18T21:23:27.943Z,19.82
2017-06-18T21:25:57.684Z,19.84
2017-06-18T21:28:27.482Z,19.91
2017-06-18T21:30:57.216Z,19.87
2017-06-18T21:33:26.971Z,19.86
2017-06-18T21:35:56.666Z,19.74
2017-06-18T21:38:26.386Z,19.79
2017-06-18T21:40:56.219Z,19.68
2017-06-18T21:43:25.944Z,19.74
2017-06-18T21:45:55.760Z,19.76
2017-06-18T21:48:25.504Z,19.79
2017-06-18T21:50:55.282Z,19.70
2017-06-18T21:53:24.983Z,19.60
2017-06-18T21:55:54.727Z,19.57
2017-06-18T21:58:24.466Z,19.63
2017-06-18T22:00:54.182Z,19.54
2017-06-18T22:03:23.935Z,19.31
2017-06-18T22:05:53.658Z,19.47
2017-06-18T22:08:26.820Z,19.45
2017-06-18T22:10:57.439Z,19.44
2017-06-18T22:13:27.234Z,19.35
2017-06-18T22:15:56.974Z,19.24
2017-06-18T22:18:26.682Z,19.16
2017-06-18T22:20:56.437Z,19.12
2017-06-18T22:23:26.182Z,19.00
2017-06-18T22:25:55.959Z,19.06
2017-06-18T22:28:25.725Z,19.16
2017-06-18T22:30:55.474Z,19.17
2017-06-18T22:33:25.189Z,19.13
2017-06-18T22:35:54.911Z,19.04
2017-06-18T22:38:24.654Z,19.06
2017-06-18T22:40:54.370Z,18.98
2017-06-18T22:43:24.090Z,19.00
2017-06-18T22:45:53.808Z,18.95
2017-06-18T22:48:23.586Z,19.01
2017-06-18T22:50:53.321Z,19.13
2017-06-18T22:53:23.078Z,19.05
2017-06-18T22:55:53.607Z,18.87
2017-06-18T22:58:23.358Z,18.80
2017-06-18T23:00:53.111Z,18.84
2017-06-18T23:03:22.854Z,18.67
2017-06-18T23:05:52.606Z,18.66
2017-06-18T23:08:22.319Z,18.76
2017-06-18T23:10:53.347Z,18.60
2017-06-18T23:13:23.067Z,18.68
2017-06-18T23:15:52.842Z,18.71
2017-06-18T23:18:22.605Z,18.55
2017-06-18T23:20:52.329Z,18.59
2017-06-18T23:23:22.067Z,18.62
2017-06-18T23:25:51.810Z,18.56
2017-06-18T23:28:21.590Z,18.53
2017-06-18T23:30:51.311Z,18.48
2017-06-18T23:33:21.067Z,18.43
2017-06-18T23:35:50.783Z,18.42
2017-06-18T23:38:20.494Z,18.22
2017-06-18T23:40:50.233Z,18.20
2017-06-18T23:43:19.936Z,18.25
2017-06-18T23:45:49.666Z,18.32
2017-06-18T23:48:19.385Z,18.20
2017-06-18T23:50:49.135Z,18.12
2017-06-18T23:53:18.870Z,18.12
2017-06-18T23:55:48.583Z,18.14
2017-06-18T23:58:18.374Z,18.06
